Have a Safe July 4th! 

Flight Track Log - Related Links

Times and Time Zones

All times are in EDT time to prevent confusion due to time zone crossing. See the MPE439 flight status page for this flight to view local times or setup timezone preferences in your user account.

Time Position Orientation Groundspeed Altitude Reporting Facility
EDT Latitude Longitude Course Direction KTS MPH feet Rate Location/Type
Wed 10:37:12 PM 62.4333 -114.4833 214° Southwest 130 150 1,900  Level Edmonton Center
Wed 10:38:12 PM 62.3833 -114.4667 171° South 210 242 4,300 3,050 Climbing Edmonton Center
Wed 10:39:12 PM 62.3167 -114.4833 187° South 270 311 8,000 3,400 Climbing Edmonton Center
Wed 10:40:12 PM 62.2333 -114.4500 169° South 290 334 11,100 2,750 Climbing Edmonton Center
Wed 10:41:12 PM 62.1333 -114.4500 180° South 360 414 13,500 2,950 Climbing Edmonton Center
Wed 10:42:12 PM 62.0333 -114.4667 184° South 390 449 17,000 2,900 Climbing Edmonton Center
Wed 10:43:12 PM 61.9167 -114.4667 180° South 400 460 19,300 2,400 Climbing Edmonton Center
Wed 10:44:12 PM 61.8000 -114.4167 169° South 420 483 21,800 2,450 Climbing Edmonton Center
Wed 10:45:12 PM 61.6667 -114.4167 180° South 440 506 24,200 2,300 Climbing Edmonton Center
Wed 10:46:12 PM 61.5333 -114.4167 180° South 450 518 26,400 1,950 Climbing Edmonton Center
Wed 10:47:12 PM 61.4000 -114.4167 180° South 470 541 28,100 2,450 Climbing Edmonton Center
Wed 10:48:12 PM 61.2833 -114.4167 180° South 460 529 31,300 2,450 Climbing Edmonton Center
Wed 10:49:12 PM 61.1667 -114.4167 180° South 440 506 33,000 1,400 Climbing Edmonton Center
Wed 10:50:12 PM 61.0333 -114.4167 180° South 440 506 34,100 950 Climbing Edmonton Center
Wed 10:51:12 PM 60.9000 -114.4000 177° South 450 518 34,900 450 Climbing Edmonton Center
Wed 10:52:12 PM 60.7833 -114.4000 180° South 450 518 35,000 50 Climbing Edmonton Center
Wed 10:53:12 PM 60.6500 -114.4000 180° South 450 518 35,000  Level Edmonton Center
Wed 10:54:12 PM 60.5167 -114.4000 180° South 450 518 35,000  Level Edmonton Center
Wed 10:55:12 PM 60.4000 -114.3667 172° South 450 518 35,000  Level Edmonton Center
Wed 10:56:12 PM 60.2667 -114.3667 180° South 440 506 35,000  Level Edmonton Center
Wed 10:57:12 PM 60.1333 -114.3500 176° South 440 506 35,000  Level Edmonton Center
Wed 10:58:12 PM 60.0167 -114.3500 180° South 440 506 35,000  Level Edmonton Center
Wed 10:59:12 PM 59.9000 -114.3500 180° South 440 506 35,000  Level Edmonton Center
Wed 11:00:12 PM 59.7833 -114.3500 180° South 440 506 35,000  Level Edmonton Center
Wed 11:01:12 PM 59.6333 -114.3500 180° South 450 518 35,000  Level Edmonton Center
Wed 11:02:12 PM 59.5167 -114.3500 180° South 440 506 35,000  Level Edmonton Center
Wed 11:03:12 PM 59.4000 -114.3500 180° South 440 506 35,000  Level Edmonton Center
Wed 11:04:12 PM 59.2667 -114.3167 173° South 440 506 35,000  Level Edmonton Center
Wed 11:05:12 PM 59.1500 -114.3167 180° South 440 506 35,000  Level Edmonton Center
Wed 11:06:12 PM 59.0333 -114.3167 180° South 440 506 35,000  Level Edmonton Center
Wed 11:07:12 PM 58.8833 -114.3167 180° South 440 506 35,000  Level Edmonton Center
Wed 11:08:12 PM 58.7667 -114.3167 180° South 440 506 35,000  Level Edmonton Center
Wed 11:09:12 PM 58.6500 -114.3167 180° South 440 506 35,000  Level Edmonton Center
Wed 11:10:12 PM 58.5333 -114.3167 180° South 440 506 35,000  Level Edmonton Center
Wed 11:11:12 PM 58.4000 -114.3167 180° South 440 506 35,000  Level Edmonton Center
Wed 11:12:12 PM 58.2833 -114.3167 180° South 440 506 35,000  Level Edmonton Center
Wed 11:13:12 PM 58.1667 -114.2833 171° South 440 506 35,000  Level Edmonton Center
Wed 11:14:12 PM 58.0167 -114.2667 177° South 440 506 35,000  Level Edmonton Center
Wed 11:15:12 PM 57.9000 -114.2833 184° South 440 506 35,000  Level Edmonton Center
Wed 11:16:12 PM 57.7667 -114.2667 176° South 450 518 35,000  Level Edmonton Center
Wed 11:17:12 PM 57.6500 -114.2667 180° South 450 518 35,000  Level Edmonton Center
Wed 11:18:12 PM 57.5333 -114.2667 180° South 450 518 35,000  Level Edmonton Center
Wed 11:19:12 PM 57.4000 -114.2667 180° South 440 506 35,000  Level Edmonton Center
Wed 11:20:12 PM 57.2667 -114.2667 180° South 440 506 35,000  Level Edmonton Center
Wed 11:21:12 PM 57.1500 -114.2667 180° South 440 506 35,000  Level Edmonton Center
Wed 11:22:12 PM 57.0333 -114.2333 171° South 440 506 35,000  Level Edmonton Center
Wed 11:23:12 PM 56.9000 -114.2333 180° South 440 506 35,000  Level Edmonton Center
Wed 11:24:12 PM 56.7833 -114.2333 180° South 440 506 35,000  Level Edmonton Center
Wed 11:25:12 PM 56.6333 -114.2333 180° South 440 506 35,000  Level Edmonton Center
Wed 11:26:12 PM 56.5167 -114.2333 180° South 440 506 35,000  Level Edmonton Center
Wed 11:27:12 PM 56.4000 -114.2333 180° South 440 506 35,000  Level Edmonton Center
Wed 11:28:12 PM 56.2833 -114.2333 180° South 440 506 35,000  Level Edmonton Center
Wed 11:29:12 PM 56.1500 -114.2333 180° South 440 506 35,000  Level Edmonton Center
Wed 11:30:12 PM 56.0333 -114.2333 180° South 440 506 35,000  Level Edmonton Center
Wed 11:31:12 PM 55.9000 -114.2000 172° South 440 506 35,000  Level Edmonton Center
Wed 11:32:12 PM 55.7833 -114.2000 180° South 440 506 35,000  Level Edmonton Center
Wed 11:33:12 PM 55.6667 -114.2167 185° South 440 506 35,000  Level Edmonton Center
Wed 11:34:12 PM 55.5333 -114.2000 176° South 440 506 35,000  Level Edmonton Center
Wed 11:35:12 PM 55.4167 -114.2000 180° South 440 506 35,000  Level Edmonton Center
Wed 11:36:12 PM 55.2833 -114.2000 180° South 440 506 35,000  Level Edmonton Center
Wed 11:37:12 PM 55.1500 -114.2000 180° South 440 506 35,000  Level Edmonton Center
Wed 11:38:12 PM 55.0333 -114.1833 175° South 440 506 35,000  Level Edmonton Center
Wed 11:39:12 PM 54.9167 -114.1833 180° South 440 506 35,000  Level Edmonton Center
Wed 11:40:12 PM 54.7833 -114.1833 180° South 440 506 35,000 -950 Level Edmonton Center
Wed 11:41:12 PM 54.6667 -114.1833 180° South 430 495 33,100 -2,350 Descending Edmonton Center
Wed 11:42:12 PM 54.5500 -114.1167 162° South 440 506 30,300 -2,800 Descending Edmonton Center
Wed 11:43:12 PM 54.4333 -114.0333 157° South 430 495 27,500 -3,450 Descending Edmonton Center
Wed 11:44:12 PM 54.3000 -113.9833 168° South 440 506 23,400 -3,400 Descending Edmonton Center
Wed 11:45:12 PM 54.2000 -113.9000 154° Southeast 440 506 20,700 -2,250 Descending Edmonton Center
Wed 11:46:12 PM 54.1000 -113.8500 164° South 390 449 18,900 -1,950 Descending Edmonton Center
Wed 11:47:12 PM 54.0000 -113.7667 154° Southeast 370 426 16,800 -2,350 Descending Edmonton Center
Wed 11:48:12 PM 53.9000 -113.7167 164° South 360 414 14,200 -2,400 Descending Edmonton Center
Wed 11:49:12 PM 53.8000 -113.6667 164° South 350 403 12,000 -1,650 Descending Edmonton Center
Wed 11:50:12 PM 53.7167 -113.6167 160° South 310 357 10,900 -1,250 Descending Edmonton Center
Wed 11:51:12 PM 53.6333 -113.5667 160° South 290 334 9,500 -1,700 Descending Edmonton Center
Wed 11:52:12 PM 53.5667 -113.5333 163° South 270 311 7,500 -1,600 Descending Edmonton Center
Wed 11:53:12 PM 53.5167 -113.4833 149° Southeast 240 276 6,300 -950 Descending Edmonton Center
Wed 11:54:12 PM 53.4500 -113.4500 163° South 210 242 5,600 -750 Descending Edmonton Center
Wed 11:55:12 PM 53.4000 -113.4667 191° South 170 196 4,800 -850 Descending Edmonton Center
Wed 11:56:12 PM 53.3667 -113.5167 222° Southwest 150 173 3,900 -800 Descending Edmonton Center
Wed 11:57:12 PM 53.3333 -113.5667 222° Southwest 130 150 3,200 -650 Descending Edmonton Center
Wed 11:58:12 PM 53.3167 -113.5833 211° Southwest 120 138 2,600 -600 Descending Edmonton Center

Login

Don't have an account? Register now (free) for customized features, flight alerts, and more!